sensor_id;sensor_type;location;lat;lon;timestamp;pressure;altitude;pressure_sealevel;temperature;humidity
77778;BME280;66966;-34.746;138.604;2023-05-07T00:00:58;103112.97;;;10.68;41.74
77778;BME280;66966;-34.746;138.604;2023-05-07T00:05:51;103113.67;;;10.99;41.94
77778;BME280;66966;-34.746;138.604;2023-05-07T00:08:16;103113.40;;;11.11;41.42
77778;BME280;66966;-34.746;138.604;2023-05-07T00:10:42;103112.64;;;11.21;41.37
77778;BME280;66966;-34.746;138.604;2023-05-07T00:13:07;103113.99;;;11.33;41.26
77778;BME280;66966;-34.746;138.604;2023-05-07T00:15:33;103110.16;;;11.36;41.40
77778;BME280;66966;-34.746;138.604;2023-05-07T00:17:58;103111.23;;;11.29;41.51
77778;BME280;66966;-34.746;138.604;2023-05-07T00:20:25;103107.27;;;11.39;41.47
77778;BME280;66966;-34.746;138.604;2023-05-07T00:22:50;103105.04;;;11.78;41.00
77778;BME280;66966;-34.746;138.604;2023-05-07T00:25:16;103104.73;;;11.84;40.55
77778;BME280;66966;-34.746;138.604;2023-05-07T00:27:42;103099.73;;;11.64;40.49
77778;BME280;66966;-34.746;138.604;2023-05-07T00:30:08;103096.22;;;11.72;40.52
77778;BME280;66966;-34.746;138.604;2023-05-07T00:32:34;103095.27;;;11.83;40.74
77778;BME280;66966;-34.746;138.604;2023-05-07T00:34:59;103099.56;;;11.74;40.80
77778;BME280;66966;-34.746;138.604;2023-05-07T00:37:25;103101.39;;;11.89;40.71
77778;BME280;66966;-34.746;138.604;2023-05-07T00:39:51;103099.08;;;12.30;39.96
77778;BME280;66966;-34.746;138.604;2023-05-07T00:42:17;103099.05;;;12.05;39.48
77778;BME280;66966;-34.746;138.604;2023-05-07T00:44:43;103098.81;;;11.93;40.15
77778;BME280;66966;-34.746;138.604;2023-05-07T00:47:08;103095.89;;;12.25;39.42
77778;BME280;66966;-34.746;138.604;2023-05-07T00:49:38;103095.27;;;12.41;39.43
77778;BME280;66966;-34.746;138.604;2023-05-07T00:52:00;103093.93;;;12.08;39.38
77778;BME280;66966;-34.746;138.604;2023-05-07T00:54:25;103096.24;;;12.47;39.27
77778;BME280;66966;-34.746;138.604;2023-05-07T00:56:52;103097.22;;;12.78;38.47
77778;BME280;66966;-34.746;138.604;2023-05-07T00:59:17;103097.37;;;12.94;38.31
77778;BME280;66966;-34.746;138.604;2023-05-07T01:01:43;103095.60;;;12.52;37.82
77778;BME280;66966;-34.746;138.604;2023-05-07T01:04:08;103098.18;;;13.18;38.19
77778;BME280;66966;-34.746;138.604;2023-05-07T01:06:34;103097.51;;;12.84;37.81
77778;BME280;66966;-34.746;138.604;2023-05-07T01:09:00;103103.25;;;13.30;37.71
77778;BME280;66966;-34.746;138.604;2023-05-07T01:11:25;103103.38;;;13.25;37.52
77778;BME280;66966;-34.746;138.604;2023-05-07T01:13:51;103105.88;;;13.37;36.97
77778;BME280;66966;-34.746;138.604;2023-05-07T01:16:17;103103.21;;;13.50;36.40
77778;BME280;66966;-34.746;138.604;2023-05-07T01:18:43;103104.03;;;13.21;35.66
77778;BME280;66966;-34.746;138.604;2023-05-07T01:21:11;103103.97;;;13.57;35.79
77778;BME280;66966;-34.746;138.604;2023-05-07T01:23:35;103102.32;;;13.68;36.18
77778;BME280;66966;-34.746;138.604;2023-05-07T01:26:05;103098.92;;;13.68;36.75
77778;BME280;66966;-34.746;138.604;2023-05-07T01:28:25;103099.29;;;13.89;36.10
77778;BME280;66966;-34.746;138.604;2023-05-07T01:30:56;103100.44;;;13.93;35.28
77778;BME280;66966;-34.746;138.604;2023-05-07T01:33:20;103093.17;;;13.76;35.54
77778;BME280;66966;-34.746;138.604;2023-05-07T01:35:45;103089.86;;;14.16;35.65
77778;BME280;66966;-34.746;138.604;2023-05-07T01:38:09;103086.72;;;14.23;34.44
77778;BME280;66966;-34.746;138.604;2023-05-07T01:40:35;103080.47;;;14.06;35.02
77778;BME280;66966;-34.746;138.604;2023-05-07T01:42:59;103074.89;;;14.17;35.67
77778;BME280;66966;-34.746;138.604;2023-05-07T01:45:26;103077.17;;;14.09;35.11
77778;BME280;66966;-34.746;138.604;2023-05-07T01:47:51;103079.49;;;14.17;35.31
77778;BME280;66966;-34.746;138.604;2023-05-07T01:50:19;103076.10;;;14.04;35.13
77778;BME280;66966;-34.746;138.604;2023-05-07T01:52:42;103074.40;;;14.14;34.77
77778;BME280;66966;-34.746;138.604;2023-05-07T01:55:09;103073.43;;;14.17;35.36
77778;BME280;66966;-34.746;138.604;2023-05-07T01:57:33;103074.77;;;14.80;34.55
77778;BME280;66966;-34.746;138.604;2023-05-07T02:00:00;103070.62;;;14.89;34.26
77778;BME280;66966;-34.746;138.604;2023-05-07T02:02:25;103063.35;;;15.12;34.11
77778;BME280;66966;-34.746;138.604;2023-05-07T02:04:50;103054.56;;;15.39;33.07
77778;BME280;66966;-34.746;138.604;2023-05-07T02:07:16;103048.22;;;15.17;32.65
77778;BME280;66966;-34.746;138.604;2023-05-07T02:09:54;103041.46;;;15.11;32.35
77778;BME280;66966;-34.746;138.604;2023-05-07T02:12:08;103043.37;;;15.21;32.41
77778;BME280;66966;-34.746;138.604;2023-05-07T02:14:33;103040.75;;;14.97;32.97
77778;BME280;66966;-34.746;138.604;2023-05-07T02:16:58;103038.40;;;15.70;32.49
77778;BME280;66966;-34.746;138.604;2023-05-07T02:19:24;103035.86;;;15.64;33.22
77778;BME280;66966;-34.746;138.604;2023-05-07T02:21:49;103037.43;;;15.27;32.95
77778;BME280;66966;-34.746;138.604;2023-05-07T02:24:15;103036.78;;;15.21;32.71
77778;BME280;66966;-34.746;138.604;2023-05-07T02:26:41;103036.71;;;15.29;32.67
77778;BME280;66966;-34.746;138.604;2023-05-07T02:29:06;103027.21;;;15.32;33.04
77778;BME280;66966;-34.746;138.604;2023-05-07T02:31:32;103030.83;;;15.45;33.64
77778;BME280;66966;-34.746;138.604;2023-05-07T02:33:57;103025.83;;;15.57;32.40
77778;BME280;66966;-34.746;138.604;2023-05-07T02:36:23;103030.44;;;15.70;32.61
77778;BME280;66966;-34.746;138.604;2023-05-07T02:38:48;103038.57;;;15.50;32.49
77778;BME280;66966;-34.746;138.604;2023-05-07T02:41:14;103041.34;;;15.55;33.81
77778;BME280;66966;-34.746;138.604;2023-05-07T02:43:40;103043.93;;;15.15;34.02
77778;BME280;66966;-34.746;138.604;2023-05-07T02:46:07;103041.10;;;14.97;34.27
77778;BME280;66966;-34.746;138.604;2023-05-07T02:48:31;103038.54;;;14.95;35.13
77778;BME280;66966;-34.746;138.604;2023-05-07T02:50:56;103036.83;;;15.12;34.79
77778;BME280;66966;-34.746;138.604;2023-05-07T02:53:22;103038.91;;;15.26;35.44
77778;BME280;66966;-34.746;138.604;2023-05-07T02:55:48;103031.85;;;15.32;35.80
77778;BME280;66966;-34.746;138.604;2023-05-07T02:58:13;103029.34;;;15.15;35.41
77778;BME280;66966;-34.746;138.604;2023-05-07T03:00:39;103025.14;;;14.90;35.31
77778;BME280;66966;-34.746;138.604;2023-05-07T03:03:05;103022.52;;;15.24;34.94
77778;BME280;66966;-34.746;138.604;2023-05-07T03:05:30;103018.48;;;15.17;34.36
77778;BME280;66966;-34.746;138.604;2023-05-07T03:07:56;103014.25;;;15.19;34.35
77778;BME280;66966;-34.746;138.604;2023-05-07T03:10:21;103011.73;;;15.05;34.75
77778;BME280;66966;-34.746;138.604;2023-05-07T03:12:47;103008.94;;;15.21;35.26
77778;BME280;66966;-34.746;138.604;2023-05-07T03:15:13;103003.43;;;15.36;34.64
77778;BME280;66966;-34.746;138.604;2023-05-07T03:17:38;103003.53;;;15.51;35.00
77778;BME280;66966;-34.746;138.604;2023-05-07T03:20:05;103000.03;;;15.60;33.45
77778;BME280;66966;-34.746;138.604;2023-05-07T03:22:30;102992.32;;;15.69;33.94
77778;BME280;66966;-34.746;138.604;2023-05-07T03:24:55;102987.85;;;15.81;33.68
77778;BME280;66966;-34.746;138.604;2023-05-07T03:27:21;102979.65;;;15.94;33.07
77778;BME280;66966;-34.746;138.604;2023-05-07T03:29:46;102980.89;;;16.18;33.87
77778;BME280;66966;-34.746;138.604;2023-05-07T03:32:12;102976.07;;;16.23;32.55
77778;BME280;66966;-34.746;138.604;2023-05-07T03:34:37;102982.38;;;16.37;32.13
77778;BME280;66966;-34.746;138.604;2023-05-07T03:37:03;102976.23;;;16.24;30.37
77778;BME280;66966;-34.746;138.604;2023-05-07T03:39:28;102969.57;;;16.15;30.51
77778;BME280;66966;-34.746;138.604;2023-05-07T03:41:54;102965.06;;;16.43;30.66
77778;BME280;66966;-34.746;138.604;2023-05-07T03:44:20;102966.99;;;16.68;30.40
77778;BME280;66966;-34.746;138.604;2023-05-07T03:46:45;102960.57;;;16.95;28.43
77778;BME280;66966;-34.746;138.604;2023-05-07T03:49:11;102957.06;;;16.55;28.93
77778;BME280;66966;-34.746;138.604;2023-05-07T03:51:36;102956.35;;;16.61;28.95
77778;BME280;66966;-34.746;138.604;2023-05-07T03:54:02;102948.79;;;16.76;27.37
77778;BME280;66966;-34.746;138.604;2023-05-07T03:56:28;102946.76;;;16.65;27.75
77778;BME280;66966;-34.746;138.604;2023-05-07T03:58:53;102947.29;;;16.97;28.28
77778;BME280;66966;-34.746;138.604;2023-05-07T04:01:19;102946.68;;;16.66;27.00
77778;BME280;66966;-34.746;138.604;2023-05-07T04:03:44;102949.48;;;16.70;28.20
77778;BME280;66966;-34.746;138.604;2023-05-07T04:06:09;102943.87;;;16.99;28.72
77778;BME280;66966;-34.746;138.604;2023-05-07T04:08:36;102937.78;;;17.36;28.76
77778;BME280;66966;-34.746;138.604;2023-05-07T04:11:01;102934.22;;;17.05;27.05
77778;BME280;66966;-34.746;138.604;2023-05-07T04:13:26;102931.46;;;17.31;27.65
77778;BME280;66966;-34.746;138.604;2023-05-07T04:15:52;102935.68;;;17.23;27.45
77778;BME280;66966;-34.746;138.604;2023-05-07T04:18:18;102936.95;;;17.48;26.44
77778;BME280;66966;-34.746;138.604;2023-05-07T04:20:43;102932.02;;;17.57;26.47
77778;BME280;66966;-34.746;138.604;2023-05-07T04:23:09;102933.46;;;17.78;26.82
77778;BME280;66966;-34.746;138.604;2023-05-07T04:25:34;102938.78;;;17.83;26.33
77778;BME280;66966;-34.746;138.604;2023-05-07T04:27:59;102937.11;;;17.39;26.71
77778;BME280;66966;-34.746;138.604;2023-05-07T04:30:25;102935.31;;;17.11;26.53
77778;BME280;66966;-34.746;138.604;2023-05-07T04:32:51;102928.23;;;16.83;26.88
77778;BME280;66966;-34.746;138.604;2023-05-07T04:35:16;102927.01;;;17.18;26.96
77778;BME280;66966;-34.746;138.604;2023-05-07T04:37:42;102925.23;;;17.19;26.31
77778;BME280;66966;-34.746;138.604;2023-05-07T04:40:08;102922.60;;;17.63;26.67
77778;BME280;66966;-34.746;138.604;2023-05-07T04:42:33;102924.61;;;17.43;26.80
77778;BME280;66966;-34.746;138.604;2023-05-07T04:44:58;102918.11;;;17.56;25.92
77778;BME280;66966;-34.746;138.604;2023-05-07T04:47:24;102915.12;;;17.77;25.61
77778;BME280;66966;-34.746;138.604;2023-05-07T04:49:49;102911.16;;;18.01;25.41
77778;BME280;66966;-34.746;138.604;2023-05-07T04:52:15;102915.69;;;17.91;26.73
77778;BME280;66966;-34.746;138.604;2023-05-07T04:54:40;102915.15;;;18.12;26.25
77778;BME280;66966;-34.746;138.604;2023-05-07T04:57:06;102915.03;;;17.99;25.64
77778;BME280;66966;-34.746;138.604;2023-05-07T04:59:31;102915.24;;;17.84;25.62
77778;BME280;66966;-34.746;138.604;2023-05-07T05:01:57;102913.27;;;17.87;26.59
77778;BME280;66966;-34.746;138.604;2023-05-07T05:04:23;102915.75;;;17.87;27.41
77778;BME280;66966;-34.746;138.604;2023-05-07T05:06:48;102910.49;;;17.85;27.53
77778;BME280;66966;-34.746;138.604;2023-05-07T05:09:14;102912.84;;;17.70;27.99
77778;BME280;66966;-34.746;138.604;2023-05-07T05:11:39;102914.98;;;17.86;28.04
77778;BME280;66966;-34.746;138.604;2023-05-07T05:14:04;102917.24;;;18.04;29.03
77778;BME280;66966;-34.746;138.604;2023-05-07T05:16:30;102917.43;;;18.14;27.89
77778;BME280;66966;-34.746;138.604;2023-05-07T05:18:55;102920.10;;;18.19;27.88
77778;BME280;66966;-34.746;138.604;2023-05-07T05:23:47;102926.32;;;18.44;27.98
77778;BME280;66966;-34.746;138.604;2023-05-07T05:26:12;102928.19;;;18.29;27.31
77778;BME280;66966;-34.746;138.604;2023-05-07T05:28:37;102925.56;;;17.84;26.98
77778;BME280;66966;-34.746;138.604;2023-05-07T05:31:04;102930.67;;;17.87;26.79
77778;BME280;66966;-34.746;138.604;2023-05-07T05:33:28;102933.52;;;17.63;26.60
77778;BME280;66966;-34.746;138.604;2023-05-07T05:35:54;102940.16;;;17.49;26.49
77778;BME280;66966;-34.746;138.604;2023-05-07T05:38:19;102942.85;;;17.32;26.58
77778;BME280;66966;-34.746;138.604;2023-05-07T05:40:45;102941.25;;;17.03;26.02
77778;BME280;66966;-34.746;138.604;2023-05-07T05:43:10;102941.71;;;17.33;25.99
77778;BME280;66966;-34.746;138.604;2023-05-07T05:45:36;102935.83;;;16.91;26.25
77778;BME280;66966;-34.746;138.604;2023-05-07T05:48:01;102931.96;;;17.26;26.45
77778;BME280;66966;-34.746;138.604;2023-05-07T05:50:27;102927.53;;;16.94;26.62
77778;BME280;66966;-34.746;138.604;2023-05-07T05:52:52;102924.63;;;17.00;27.41
77778;BME280;66966;-34.746;138.604;2023-05-07T05:55:18;102927.92;;;17.04;27.09
77778;BME280;66966;-34.746;138.604;2023-05-07T05:57:44;102928.99;;;16.92;26.10
77778;BME280;66966;-34.746;138.604;2023-05-07T06:00:10;102933.31;;;16.47;26.18
77778;BME280;66966;-34.746;138.604;2023-05-07T06:02:35;102934.27;;;16.53;26.66
77778;BME280;66966;-34.746;138.604;2023-05-07T06:05:00;102934.18;;;16.43;27.18
77778;BME280;66966;-34.746;138.604;2023-05-07T06:07:26;102932.10;;;16.41;27.29
77778;BME280;66966;-34.746;138.604;2023-05-07T06:09:52;102929.38;;;16.21;27.37
77778;BME280;66966;-34.746;138.604;2023-05-07T06:12:17;102927.01;;;16.61;26.81
77778;BME280;66966;-34.746;138.604;2023-05-07T06:14:44;102928.55;;;16.60;26.75
77778;BME280;66966;-34.746;138.604;2023-05-07T06:17:08;102932.63;;;16.53;25.92
77778;BME280;66966;-34.746;138.604;2023-05-07T06:19:33;102928.09;;;16.60;25.58
77778;BME280;66966;-34.746;138.604;2023-05-07T06:21:59;102929.60;;;16.99;25.62
77778;BME280;66966;-34.746;138.604;2023-05-07T06:24:25;102932.29;;;16.64;25.81
77778;BME280;66966;-34.746;138.604;2023-05-07T06:26:50;102929.32;;;17.16;26.09
77778;BME280;66966;-34.746;138.604;2023-05-07T06:29:16;102930.70;;;17.30;25.30
77778;BME280;66966;-34.746;138.604;2023-05-07T06:31:41;102928.37;;;17.11;25.21
77778;BME280;66966;-34.746;138.604;2023-05-07T06:34:07;102930.76;;;17.37;25.21
77778;BME280;66966;-34.746;138.604;2023-05-07T06:36:32;102932.88;;;17.30;25.54
77778;BME280;66966;-34.746;138.604;2023-05-07T06:38:58;102935.14;;;17.16;25.48
77778;BME280;66966;-34.746;138.604;2023-05-07T06:41:23;102937.07;;;16.69;25.32
77778;BME280;66966;-34.746;138.604;2023-05-07T06:43:49;102939.58;;;16.78;25.64
77778;BME280;66966;-34.746;138.604;2023-05-07T06:46:17;102941.52;;;16.56;25.64
77778;BME280;66966;-34.746;138.604;2023-05-07T06:48:40;102942.19;;;16.66;26.36
77778;BME280;66966;-34.746;138.604;2023-05-07T06:51:06;102944.37;;;16.42;26.90
77778;BME280;66966;-34.746;138.604;2023-05-07T06:53:31;102944.10;;;16.40;26.96
77778;BME280;66966;-34.746;138.604;2023-05-07T06:55:56;102946.89;;;16.36;27.10
77778;BME280;66966;-34.746;138.604;2023-05-07T06:58:22;102952.94;;;16.33;27.51
77778;BME280;66966;-34.746;138.604;2023-05-07T07:00:48;102956.36;;;16.37;27.35
77778;BME280;66966;-34.746;138.604;2023-05-07T07:03:13;102956.39;;;16.59;27.64
77778;BME280;66966;-34.746;138.604;2023-05-07T07:05:39;102954.61;;;16.36;27.56
77778;BME280;66966;-34.746;138.604;2023-05-07T07:08:05;102957.11;;;16.38;27.63
77778;BME280;66966;-34.746;138.604;2023-05-07T07:10:30;102955.06;;;16.58;27.49
77778;BME280;66966;-34.746;138.604;2023-05-07T07:12:55;102956.47;;;16.30;27.94
77778;BME280;66966;-34.746;138.604;2023-05-07T07:15:21;102957.29;;;16.41;27.74
77778;BME280;66966;-34.746;138.604;2023-05-07T07:17:47;102956.88;;;16.36;27.98
77778;BME280;66966;-34.746;138.604;2023-05-07T07:20:12;102957.06;;;16.34;27.88
77778;BME280;66966;-34.746;138.604;2023-05-07T07:22:38;102958.25;;;16.06;27.56
77778;BME280;66966;-34.746;138.604;2023-05-07T07:25:03;102956.90;;;15.95;27.36
77778;BME280;66966;-34.746;138.604;2023-05-07T07:27:29;102957.43;;;16.41;27.46
77778;BME280;66966;-34.746;138.604;2023-05-07T07:29:54;102956.71;;;16.28;26.99
77778;BME280;66966;-34.746;138.604;2023-05-07T07:32:20;102960.06;;;16.31;27.39
77778;BME280;66966;-34.746;138.604;2023-05-07T07:34:46;102961.75;;;16.10;27.46
77778;BME280;66966;-34.746;138.604;2023-05-07T07:37:11;102963.74;;;16.37;27.55
77778;BME280;66966;-34.746;138.604;2023-05-07T07:39:36;102960.75;;;16.31;27.12
77778;BME280;66966;-34.746;138.604;2023-05-07T07:42:02;102961.74;;;15.99;26.93
77778;BME280;66966;-34.746;138.604;2023-05-07T07:44:28;102966.04;;;15.87;26.79
77778;BME280;66966;-34.746;138.604;2023-05-07T07:46:54;102968.39;;;16.02;26.74
77778;BME280;66966;-34.746;138.604;2023-05-07T07:49:19;102968.11;;;15.87;27.06
77778;BME280;66966;-34.746;138.604;2023-05-07T07:51:44;102966.71;;;15.77;27.09
77778;BME280;66966;-34.746;138.604;2023-05-07T07:54:10;102966.35;;;15.70;27.45
77778;BME280;66966;-34.746;138.604;2023-05-07T07:56:36;102967.84;;;15.67;27.69
77778;BME280;66966;-34.746;138.604;2023-05-07T07:59:02;102966.47;;;15.60;27.85
77778;BME280;66966;-34.746;138.604;2023-05-07T08:01:28;102965.60;;;15.57;28.09
77778;BME280;66966;-34.746;138.604;2023-05-07T08:03:52;102966.29;;;15.48;28.05
77778;BME280;66966;-34.746;138.604;2023-05-07T08:06:18;102969.29;;;15.36;28.49
77778;BME280;66966;-34.746;138.604;2023-05-07T08:08:44;102973.62;;;15.26;28.48
77778;BME280;66966;-34.746;138.604;2023-05-07T08:11:10;102978.61;;;15.08;29.04
77778;BME280;66966;-34.746;138.604;2023-05-07T08:13:35;102983.32;;;15.14;29.07
77778;BME280;66966;-34.746;138.604;2023-05-07T08:16:00;102992.47;;;15.23;29.34
77778;BME280;66966;-34.746;138.604;2023-05-07T08:18:26;102995.85;;;15.07;29.19
77778;BME280;66966;-34.746;138.604;2023-05-07T08:20:52;103001.18;;;14.48;29.49
77778;BME280;66966;-34.746;138.604;2023-05-07T08:23:18;103006.78;;;14.83;29.85
77778;BME280;66966;-34.746;138.604;2023-05-07T08:25:43;103010.21;;;14.43;30.07
77778;BME280;66966;-34.746;138.604;2023-05-07T08:28:09;103016.01;;;14.53;30.20
77778;BME280;66966;-34.746;138.604;2023-05-07T08:30:34;103021.99;;;14.40;30.46
77778;BME280;66966;-34.746;138.604;2023-05-07T08:33:01;103028.03;;;14.27;30.59
77778;BME280;66966;-34.746;138.604;2023-05-07T08:35:26;103035.14;;;14.15;30.93
77778;BME280;66966;-34.746;138.604;2023-05-07T08:37:51;103036.57;;;14.00;30.87
77778;BME280;66966;-34.746;138.604;2023-05-07T08:40:17;103039.23;;;13.93;31.02
77778;BME280;66966;-34.746;138.604;2023-05-07T08:42:43;103042.26;;;14.05;31.22
77778;BME280;66966;-34.746;138.604;2023-05-07T08:45:10;103040.88;;;13.92;31.42
77778;BME280;66966;-34.746;138.604;2023-05-07T08:47:42;103046.48;;;13.61;31.47
77778;BME280;66966;-34.746;138.604;2023-05-07T08:50:00;103048.99;;;13.80;31.47
77778;BME280;66966;-34.746;138.604;2023-05-07T08:52:25;103051.05;;;13.51;31.46
77778;BME280;66966;-34.746;138.604;2023-05-07T08:54:51;103054.80;;;13.67;31.46
77778;BME280;66966;-34.746;138.604;2023-05-07T08:57:16;103059.03;;;13.86;31.49
77778;BME280;66966;-34.746;138.604;2023-05-07T08:59:42;103065.47;;;13.77;31.61
77778;BME280;66966;-34.746;138.604;2023-05-07T09:02:10;103071.06;;;13.45;31.66
77778;BME280;66966;-34.746;138.604;2023-05-07T09:04:34;103074.36;;;13.60;31.77
77778;BME280;66966;-34.746;138.604;2023-05-07T09:06:59;103075.69;;;13.58;31.75
77778;BME280;66966;-34.746;138.604;2023-05-07T09:09:26;103073.35;;;13.29;31.81
77778;BME280;66966;-34.746;138.604;2023-05-07T09:11:57;103071.70;;;13.47;31.81
77778;BME280;66966;-34.746;138.604;2023-05-07T09:14:17;103071.68;;;13.23;31.86
77778;BME280;66966;-34.746;138.604;2023-05-07T09:16:42;103071.69;;;13.19;31.86
77778;BME280;66966;-34.746;138.604;2023-05-07T09:19:08;103074.23;;;13.39;31.83
77778;BME280;66966;-34.746;138.604;2023-05-07T09:21:33;103074.66;;;13.35;31.87
77778;BME280;66966;-34.746;138.604;2023-05-07T09:23:59;103079.37;;;13.28;31.95
77778;BME280;66966;-34.746;138.604;2023-05-07T09:26:25;103083.21;;;13.22;31.94
77778;BME280;66966;-34.746;138.604;2023-05-07T09:28:51;103087.23;;;13.16;32.05
77778;BME280;66966;-34.746;138.604;2023-05-07T09:31:16;103090.57;;;13.09;32.04
77778;BME280;66966;-34.746;138.604;2023-05-07T09:33:42;103092.58;;;12.99;32.31
77778;BME280;66966;-34.746;138.604;2023-05-07T09:36:09;103098.80;;;13.18;32.31
77778;BME280;66966;-34.746;138.604;2023-05-07T09:38:35;103103.05;;;12.89;32.41
77778;BME280;66966;-34.746;138.604;2023-05-07T09:41:05;103105.80;;;13.10;32.42
77778;BME280;66966;-34.746;138.604;2023-05-07T09:43:25;103111.59;;;12.82;32.40
77778;BME280;66966;-34.746;138.604;2023-05-07T09:45:51;103111.75;;;13.03;32.54
77778;BME280;66966;-34.746;138.604;2023-05-07T09:48:18;103117.06;;;12.76;32.46
77778;BME280;66966;-34.746;138.604;2023-05-07T09:50:48;103117.27;;;12.73;32.65
77778;BME280;66966;-34.746;138.604;2023-05-07T09:53:11;103124.03;;;12.94;32.59
77778;BME280;66966;-34.746;138.604;2023-05-07T09:55:34;103130.45;;;12.70;32.62
77778;BME280;66966;-34.746;138.604;2023-05-07T09:58:00;103137.46;;;12.67;32.73
77778;BME280;66966;-34.746;138.604;2023-05-07T10:00:26;103139.19;;;12.64;32.98
77778;BME280;66966;-34.746;138.604;2023-05-07T10:02:53;103137.64;;;12.34;33.01
77778;BME280;66966;-34.746;138.604;2023-05-07T10:05:18;103134.74;;;12.86;33.11
77778;BME280;66966;-34.746;138.604;2023-05-07T10:07:43;103133.01;;;12.61;32.94
77778;BME280;66966;-34.746;138.604;2023-05-07T10:10:09;103135.69;;;12.59;33.04
77778;BME280;66966;-34.746;138.604;2023-05-07T10:12:34;103140.05;;;12.63;33.04
77778;BME280;66966;-34.746;138.604;2023-05-07T10:15:00;103138.97;;;12.91;33.24
77778;BME280;66966;-34.746;138.604;2023-05-07T10:17:26;103137.74;;;11.29;33.23
77778;BME280;66966;-34.746;138.604;2023-05-07T10:19:51;103139.87;;;13.04;32.95
77778;BME280;66966;-34.746;138.604;2023-05-07T10:22:17;103137.03;;;13.03;32.94
77778;BME280;66966;-34.746;138.604;2023-05-07T10:24:45;103137.64;;;12.98;33.18
77778;BME280;66966;-34.746;138.604;2023-05-07T10:27:12;103136.51;;;13.24;33.43
77778;BME280;66966;-34.746;138.604;2023-05-07T10:29:42;103139.54;;;13.02;33.65
77778;BME280;66966;-34.746;138.604;2023-05-07T10:34:34;103139.48;;;13.17;33.73
77778;BME280;66966;-34.746;138.604;2023-05-07T10:36:52;103139.48;;;13.23;33.88
77778;BME280;66966;-34.746;138.604;2023-05-07T10:39:17;103144.09;;;13.22;33.86
77778;BME280;66966;-34.746;138.604;2023-05-07T10:41:43;103144.52;;;12.98;33.95
77778;BME280;66966;-34.746;138.604;2023-05-07T10:44:09;103146.48;;;13.23;34.03
77778;BME280;66966;-34.746;138.604;2023-05-07T10:46:34;103146.82;;;13.24;33.96
77778;BME280;66966;-34.746;138.604;2023-05-07T10:49:09;103146.73;;;13.23;34.02
77778;BME280;66966;-34.746;138.604;2023-05-07T10:51:26;103142.55;;;13.26;34.07
77778;BME280;66966;-34.746;138.604;2023-05-07T10:56:26;103142.73;;;13.27;34.24
77778;BME280;66966;-34.746;138.604;2023-05-07T10:58:42;103140.65;;;13.26;34.36
77778;BME280;66966;-34.746;138.604;2023-05-07T11:01:08;103138.23;;;13.18;34.46
77778;BME280;66966;-34.746;138.604;2023-05-07T11:03:34;103140.41;;;13.09;34.42
77778;BME280;66966;-34.746;138.604;2023-05-07T11:06:12;103140.21;;;12.95;34.49
77778;BME280;66966;-34.746;138.604;2023-05-07T11:08:26;103144.57;;;12.87;34.53
77778;BME280;66966;-34.746;138.604;2023-05-07T11:10:53;103147.06;;;12.76;34.71
77778;BME280;66966;-34.746;138.604;2023-05-07T11:13:18;103146.62;;;13.11;34.92
77778;BME280;66966;-34.746;138.604;2023-05-07T11:15:45;103141.43;;;12.45;35.10
77778;BME280;66966;-34.746;138.604;2023-05-07T11:18:09;103139.73;;;12.55;35.17
77778;BME280;66966;-34.746;138.604;2023-05-07T11:20:47;103140.19;;;12.44;35.28
77778;BME280;66966;-34.746;138.604;2023-05-07T11:23:00;103138.82;;;12.32;35.53
77778;BME280;66966;-34.746;138.604;2023-05-07T11:25:26;103144.02;;;12.01;35.70
77778;BME280;66966;-34.746;138.604;2023-05-07T11:27:51;103143.19;;;12.42;35.77
77778;BME280;66966;-34.746;138.604;2023-05-07T11:30:19;103144.52;;;12.31;35.82
77778;BME280;66966;-34.746;138.604;2023-05-07T11:32:42;103143.68;;;12.21;35.85
77778;BME280;66966;-34.746;138.604;2023-05-07T11:35:09;103140.23;;;12.13;35.92
77778;BME280;66966;-34.746;138.604;2023-05-07T11:37:34;103139.98;;;12.04;36.06
77778;BME280;66966;-34.746;138.604;2023-05-07T11:40:08;103141.19;;;11.97;36.07
77778;BME280;66966;-34.746;138.604;2023-05-07T11:42:29;103143.14;;;11.88;36.19
77778;BME280;66966;-34.746;138.604;2023-05-07T11:44:51;103144.11;;;11.85;36.27
77778;BME280;66966;-34.746;138.604;2023-05-07T11:47:20;103143.50;;;11.83;36.41
77778;BME280;66966;-34.746;138.604;2023-05-07T11:49:42;103141.09;;;11.79;36.51
77778;BME280;66966;-34.746;138.604;2023-05-07T11:52:08;103140.39;;;11.69;36.61
77778;BME280;66966;-34.746;138.604;2023-05-07T11:54:37;103141.80;;;11.85;36.62
77778;BME280;66966;-34.746;138.604;2023-05-07T11:57:00;103145.29;;;11.50;36.73
77778;BME280;66966;-34.746;138.604;2023-05-07T11:59:26;103149.63;;;11.49;36.79
77778;BME280;66966;-34.746;138.604;2023-05-07T12:01:51;103149.58;;;11.52;36.93
77778;BME280;66966;-34.746;138.604;2023-05-07T12:04:20;103148.42;;;11.69;36.90
77778;BME280;66966;-34.746;138.604;2023-05-07T12:06:43;103152.54;;;11.37;37.02
77778;BME280;66966;-34.746;138.604;2023-05-07T12:09:08;103150.68;;;11.37;37.14
77778;BME280;66966;-34.746;138.604;2023-05-07T12:11:34;103147.73;;;11.35;37.33
77778;BME280;66966;-34.746;138.604;2023-05-07T12:13:59;103144.69;;;11.55;37.34
77778;BME280;66966;-34.746;138.604;2023-05-07T12:16:25;103146.73;;;11.49;37.38
77778;BME280;66966;-34.746;138.604;2023-05-07T12:18:51;103145.31;;;11.15;37.49
77778;BME280;66966;-34.746;138.604;2023-05-07T12:21:16;103148.06;;;11.30;37.51